createdAt,value
2018-01-01T00:04:57.965Z,97751.53
2018-01-01T00:11:02.202Z,97762.70
2018-01-01T00:17:05.766Z,97738.12
2018-01-01T00:23:09.247Z,97742.65
2018-01-01T00:29:13.791Z,97719.20
2018-01-01T00:35:17.323Z,97728.96
2018-01-01T00:41:21.107Z,97732.00
2018-01-01T00:47:25.715Z,97735.03
2018-01-01T00:53:29.966Z,97735.77
2018-01-01T00:59:33.433Z,97739.67
2018-01-01T01:05:36.887Z,97731.09
2018-01-01T01:11:41.314Z,97745.44
2018-01-01T01:17:44.901Z,97750.10
2018-01-01T01:23:48.418Z,97756.67
2018-01-01T01:29:52.327Z,97752.50
2018-01-01T01:35:55.962Z,97774.17
2018-01-01T01:41:59.460Z,97800.06
2018-01-01T01:48:03.708Z,97832.81
2018-01-01T01:54:07.283Z,97840.13
2018-01-01T02:00:11.622Z,97855.62
2018-01-01T02:06:15.102Z,97881.38
2018-01-01T02:12:18.581Z,97875.02
2018-01-01T02:18:23.114Z,97851.80
2018-01-01T02:24:26.689Z,97859.26
2018-01-01T02:30:30.162Z,97880.38
2018-01-01T02:36:34.518Z,97878.35
2018-01-01T02:42:37.998Z,97866.64
2018-01-01T02:48:41.503Z,97884.84
2018-01-01T02:54:44.987Z,97889.50
2018-01-01T03:00:48.594Z,97887.53
2018-01-01T03:06:53.513Z,97896.53
2018-01-01T03:12:57.013Z,97878.86
2018-01-01T03:19:01.654Z,97887.81
2018-01-01T03:25:05.248Z,97865.84
2018-01-01T03:31:08.851Z,97861.63
2018-01-01T03:37:12.410Z,97856.95
2018-01-01T03:43:15.890Z,97839.27
2018-01-01T03:49:20.134Z,97873.77
2018-01-01T03:55:23.867Z,97882.81
2018-01-01T04:01:27.339Z,97887.58
2018-01-01T04:07:31.011Z,97886.72
2018-01-01T04:13:34.573Z,97890.00
2018-01-01T04:19:38.326Z,97904.11
2018-01-01T04:25:41.878Z,97900.06
2018-01-01T04:31:45.349Z,97895.80
2018-01-01T04:37:48.854Z,97897.76
2018-01-01T04:43:53.465Z,97888.90
2018-01-01T04:49:57.145Z,97884.22
2018-01-01T04:56:00.667Z,97882.38
2018-01-01T05:02:04.398Z,97902.08
2018-01-01T05:08:07.924Z,97905.16
2018-01-01T05:14:11.659Z,97898.50
2018-01-01T05:20:15.112Z,97896.22
2018-01-01T05:26:18.694Z,97911.59
2018-01-01T05:32:23.137Z,97909.62
2018-01-01T05:38:26.751Z,97908.25
2018-01-01T05:44:30.205Z,97920.77
2018-01-01T05:50:33.936Z,97936.81
2018-01-01T05:56:38.221Z,97943.83
2018-01-01T06:02:41.675Z,97951.47
2018-01-01T06:08:46.861Z,97956.17
2018-01-01T06:14:50.748Z,97957.38
2018-01-01T06:20:54.938Z,97964.56
2018-01-01T06:26:58.417Z,97974.89
2018-01-01T06:33:02.066Z,97981.50
2018-01-01T06:39:05.557Z,97987.40
2018-01-01T06:45:09.057Z,97989.91
2018-01-01T06:51:12.693Z,97996.94
2018-01-01T06:57:16.238Z,98005.86
2018-01-01T07:03:19.735Z,98006.86
2018-01-01T07:09:24.238Z,98003.71
2018-01-01T07:15:27.733Z,98011.48
2018-01-01T07:21:31.339Z,98015.49
2018-01-01T07:27:34.793Z,98025.11
2018-01-01T07:33:38.262Z,98037.23
2018-01-01T07:39:42.501Z,98037.98
2018-01-01T07:45:45.988Z,98059.20
2018-01-01T07:51:50.256Z,98060.72
2018-01-01T07:57:54.122Z,98080.87
2018-01-01T08:03:58.350Z,98083.23
2018-01-01T08:10:01.858Z,98099.64
2018-01-01T08:16:06.077Z,98113.95
2018-01-01T08:22:09.672Z,98129.03
2018-01-01T08:28:13.892Z,98142.55
2018-01-01T08:34:17.499Z,98150.16
2018-01-01T08:40:21.940Z,98165.23
2018-01-01T08:46:25.638Z,98171.69
2018-01-01T08:52:29.905Z,98192.45
2018-01-01T08:58:33.486Z,98203.33
2018-01-01T09:04:36.969Z,98204.36
2018-01-01T09:10:40.553Z,98207.23
2018-01-01T09:16:44.047Z,98211.42
2018-01-01T09:22:47.509Z,98221.09
2018-01-01T09:28:51.378Z,98251.84
2018-01-01T09:34:55.593Z,98257.29
2018-01-01T09:40:59.173Z,98246.40
2018-01-01T09:47:02.682Z,98233.08
2018-01-01T09:53:06.170Z,98235.35
2018-01-01T09:59:09.683Z,98221.38
2018-01-01T10:05:13.468Z,98219.43
2018-01-01T10:11:16.938Z,98205.47
2018-01-01T10:17:20.690Z,98211.63
2018-01-01T10:23:24.388Z,98203.78
2018-01-01T10:29:27.895Z,98208.80
2018-01-01T10:35:31.370Z,98216.17
2018-01-01T10:41:34.918Z,98218.47
2018-01-01T10:47:38.592Z,98211.84
2018-01-01T10:53:43.079Z,98204.89
2018-01-01T10:59:47.486Z,98193.30
2018-01-01T11:05:51.855Z,98183.42
2018-01-01T11:11:56.028Z,98175.64
2018-01-01T11:17:59.521Z,98164.85
2018-01-01T11:24:03.061Z,98151.48
2018-01-01T11:30:06.565Z,98149.16
2018-01-01T11:36:11.165Z,98140.47
2018-01-01T11:42:14.769Z,98141.44
2018-01-01T11:48:18.341Z,98137.73
2018-01-01T11:54:23.433Z,98140.92
2018-01-01T12:00:26.985Z,98115.50
2018-01-01T12:06:30.583Z,98103.80
2018-01-01T12:12:34.114Z,98092.28
2018-01-01T12:18:37.587Z,98088.92
2018-01-01T12:24:41.983Z,98075.66
2018-01-01T12:30:45.514Z,98069.95
2018-01-01T12:36:49.038Z,98054.24
2018-01-01T12:42:53.405Z,98053.66
2018-01-01T12:48:57.763Z,98071.30
2018-01-01T12:55:01.219Z,98069.94
2018-01-01T13:01:04.899Z,98065.13
2018-01-01T13:07:08.576Z,98062.81
2018-01-01T13:13:12.353Z,98051.53
2018-01-01T13:19:15.841Z,98037.75
2018-01-01T13:25:19.394Z,98045.34
2018-01-01T13:31:23.788Z,98034.68
2018-01-01T13:37:27.248Z,98032.52
2018-01-01T13:43:30.707Z,98027.91
2018-01-01T13:49:34.178Z,98017.80
2018-01-01T13:55:38.510Z,98012.47
2018-01-01T14:01:42.063Z,98013.66
2018-01-01T14:07:45.530Z,98024.76
2018-01-01T14:13:49.079Z,98021.92
2018-01-01T14:19:53.108Z,98018.84
2018-01-01T14:25:57.017Z,98008.70
2018-01-01T14:32:00.535Z,98001.72
2018-01-01T14:38:04.018Z,97994.03
2018-01-01T14:44:07.500Z,97999.88
2018-01-01T14:50:12.027Z,97987.72
2018-01-01T14:56:15.572Z,97970.41
2018-01-01T15:02:19.139Z,97960.29
2018-01-01T15:08:23.379Z,97956.63
2018-01-01T15:14:27.000Z,97967.40
2018-01-01T15:20:30.467Z,97957.65
2018-01-01T15:26:34.701Z,97955.41
2018-01-01T15:32:38.198Z,97946.04
2018-01-01T15:38:42.539Z,97939.69
2018-01-01T15:44:46.000Z,97940.66
2018-01-01T15:50:49.570Z,97917.97
2018-01-01T15:56:53.384Z,97910.91
2018-01-01T16:02:57.063Z,97912.91
2018-01-01T16:09:00.632Z,97908.41
2018-01-01T16:15:04.132Z,97890.62
2018-01-01T16:21:07.605Z,97884.79
2018-01-01T16:27:11.287Z,97884.48
2018-01-01T16:33:14.823Z,97877.28
2018-01-01T16:39:18.290Z,97871.45
2018-01-01T16:45:22.178Z,97873.61
2018-01-01T16:51:26.254Z,97875.03
2018-01-01T16:57:30.598Z,97874.81
2018-01-01T17:03:34.119Z,97863.77
2018-01-01T17:09:37.577Z,97847.43
2018-01-01T17:15:41.142Z,97841.40
2018-01-01T17:21:44.642Z,97825.95
2018-01-01T17:27:48.295Z,97826.98
2018-01-01T17:33:52.479Z,97817.17
2018-01-01T17:39:56.748Z,97813.66
2018-01-01T17:46:00.284Z,97808.55
2018-01-01T17:52:03.906Z,97806.72
2018-01-01T17:58:07.760Z,97796.08
2018-01-01T18:04:11.290Z,97796.50
2018-01-01T18:10:14.901Z,97798.55
2018-01-01T18:16:19.219Z,97800.19
2018-01-01T18:22:23.636Z,97807.95
2018-01-01T18:28:27.293Z,97800.59
2018-01-01T18:34:30.786Z,97797.94
2018-01-01T18:40:35.225Z,97795.06
2018-01-01T18:46:38.734Z,97789.74
2018-01-01T18:52:42.991Z,97790.45
2018-01-01T18:58:47.222Z,97783.20
2018-01-01T19:04:50.835Z,97774.81
2018-01-01T19:10:55.377Z,97755.90
2018-01-01T19:16:59.004Z,97747.21
2018-01-01T19:23:03.288Z,97742.41
2018-01-01T19:29:06.767Z,97741.38
2018-01-01T19:35:11.754Z,97729.61
2018-01-01T19:41:15.292Z,97726.54
2018-01-01T19:47:18.826Z,97721.33
2018-01-01T19:53:23.154Z,97705.75
2018-01-01T19:59:27.546Z,97708.84
2018-01-01T20:05:31.061Z,97705.16
2018-01-01T20:11:35.364Z,97695.25
2018-01-01T20:17:38.909Z,97698.94
2018-01-01T20:23:43.241Z,97696.80
2018-01-01T20:29:46.915Z,97684.72
2018-01-01T20:35:50.472Z,97679.14
2018-01-01T20:41:54.367Z,97679.54
2018-01-01T20:47:58.740Z,97663.78
2018-01-01T20:54:02.989Z,97658.50
2018-01-01T21:00:07.287Z,97657.57
2018-01-01T21:06:10.840Z,97653.28
2018-01-01T21:12:15.118Z,97651.11
2018-01-01T21:18:19.372Z,97655.13
2018-01-01T21:24:23.583Z,97652.58
2018-01-01T21:30:27.353Z,97649.52
2018-01-01T21:36:30.798Z,97661.05
2018-01-01T21:42:34.266Z,97665.16
2018-01-01T21:48:37.765Z,97663.23
2018-01-01T21:54:41.393Z,97672.73
2018-01-01T22:00:44.929Z,97668.64
2018-01-01T22:06:48.468Z,97678.57
2018-01-01T22:12:52.354Z,97668.34
2018-01-01T22:18:55.938Z,97669.86
2018-01-01T22:25:00.272Z,97666.70
2018-01-01T22:31:03.824Z,97666.19
2018-01-01T22:37:08.099Z,97654.53
2018-01-01T22:43:11.943Z,97655.58
2018-01-01T22:49:16.388Z,97668.84
2018-01-01T22:55:20.220Z,97660.96
2018-01-01T23:01:24.214Z,97663.52
2018-01-01T23:07:28.580Z,97673.63
2018-01-01T23:13:32.163Z,97670.36
2018-01-01T23:19:36.399Z,97670.05
2018-01-01T23:25:39.881Z,97667.38
2018-01-01T23:31:44.087Z,97675.47
2018-01-01T23:37:47.570Z,97674.63
2018-01-01T23:43:51.540Z,97677.91
2018-01-01T23:49:55.249Z,97691.19
2018-01-01T23:55:58.743Z,97695.48
